createdAt,value
2022-12-05T00:00:55.375Z,1.74
2022-12-05T00:03:36.259Z,1.80
2022-12-05T00:06:18.175Z,1.81
2022-12-05T00:08:59.105Z,1.75
2022-12-05T00:11:39.014Z,1.78
2022-12-05T00:14:22.234Z,1.79
2022-12-05T00:17:03.298Z,1.82
2022-12-05T00:19:44.691Z,1.84
2022-12-05T00:22:24.463Z,1.79
2022-12-05T00:25:02.350Z,1.84
2022-12-05T00:27:42.474Z,1.82
2022-12-05T00:30:24.291Z,1.83
2022-12-05T00:33:05.308Z,1.83
2022-12-05T00:35:45.131Z,1.85
2022-12-05T00:38:26.916Z,1.88
2022-12-05T00:41:08.891Z,1.93
2022-12-05T00:43:49.342Z,1.89
2022-12-05T00:46:31.786Z,1.82
2022-12-05T00:49:12.426Z,1.83
2022-12-05T00:51:53.989Z,1.83
2022-12-05T00:54:36.930Z,1.84
2022-12-05T00:57:19.964Z,1.79
2022-12-05T01:00:00.965Z,1.79
2022-12-05T01:02:40.818Z,1.83
2022-12-05T01:05:22.569Z,1.87
2022-12-05T01:08:03.773Z,1.76
2022-12-05T01:10:54.462Z,1.84
2022-12-05T01:13:34.442Z,1.91
2022-12-05T01:16:17.838Z,1.91
2022-12-05T01:18:59.292Z,1.91
2022-12-05T01:21:42.364Z,1.97
2022-12-05T01:24:23.507Z,1.95
2022-12-05T01:27:04.644Z,1.95
2022-12-05T01:29:44.562Z,1.96
2022-12-05T01:32:25.962Z,1.91
2022-12-05T01:35:09.847Z,1.99
2022-12-05T01:37:50.372Z,2.00
2022-12-05T01:40:32.095Z,1.98
2022-12-05T01:43:15.367Z,1.96
2022-12-05T01:45:56.234Z,1.91
2022-12-05T01:48:37.727Z,1.93
2022-12-05T01:51:19.052Z,1.90
2022-12-05T01:54:00.326Z,1.97
2022-12-05T01:56:40.158Z,2.00
2022-12-05T01:59:19.984Z,2.03
2022-12-05T02:01:59.827Z,2.07
2022-12-05T02:04:42.567Z,2.08
2022-12-05T02:07:22.907Z,2.02
2022-12-05T02:10:07.048Z,2.02
2022-12-05T02:12:47.015Z,2.04
2022-12-05T02:15:33.209Z,2.00
2022-12-05T02:18:19.909Z,1.86
2022-12-05T02:21:05.729Z,1.97
2022-12-05T02:23:54.699Z,2.05
2022-12-05T02:26:42.201Z,2.08
2022-12-05T02:29:50.742Z,2.10
2022-12-05T02:32:35.749Z,2.11
2022-12-05T02:35:21.639Z,2.00
2022-12-05T02:38:02.925Z,2.07
2022-12-05T02:40:44.651Z,2.08
2022-12-05T02:43:29.789Z,2.06
2022-12-05T02:46:14.232Z,2.04
2022-12-05T02:48:58.795Z,2.04
2022-12-05T02:51:43.210Z,1.92
2022-12-05T02:54:25.013Z,1.98
2022-12-05T02:57:06.280Z,2.00
2022-12-05T02:59:46.104Z,2.06
2022-12-05T03:02:26.820Z,2.05
2022-12-05T03:05:10.082Z,2.09
2022-12-05T03:07:50.594Z,2.13
2022-12-05T03:10:32.250Z,2.11
2022-12-05T03:13:16.064Z,2.09
2022-12-05T03:15:56.575Z,2.09
2022-12-05T03:18:38.422Z,2.04
2022-12-05T03:21:21.932Z,2.09
2022-12-05T03:24:04.937Z,2.09
2022-12-05T03:26:47.423Z,2.09
2022-12-05T03:29:30.212Z,2.11
2022-12-05T03:32:15.002Z,2.16
2022-12-05T03:34:59.989Z,2.09
2022-12-05T03:37:47.367Z,2.08
2022-12-05T03:40:32.905Z,2.08
2022-12-05T03:43:15.609Z,2.07
2022-12-05T03:45:56.629Z,2.14
2022-12-05T03:48:38.066Z,2.06
2022-12-05T03:51:18.448Z,2.05
2022-12-05T03:53:59.222Z,2.11
2022-12-05T03:56:41.583Z,2.10
2022-12-05T03:59:26.677Z,2.16
2022-12-05T04:02:08.627Z,2.17
2022-12-05T04:04:49.801Z,2.18
2022-12-05T04:07:30.157Z,2.18
2022-12-05T04:10:13.970Z,2.19
2022-12-05T04:12:55.076Z,2.17
2022-12-05T04:15:49.895Z,2.21
2022-12-05T04:18:32.090Z,2.18
2022-12-05T04:21:33.068Z,2.22
2022-12-05T04:24:34.376Z,2.15
2022-12-05T04:27:17.730Z,2.16
2022-12-05T04:30:05.753Z,2.18
2022-12-05T04:32:47.521Z,2.22
2022-12-05T04:35:29.105Z,2.18
2022-12-05T04:38:10.161Z,2.21
2022-12-05T04:40:52.291Z,2.24
2022-12-05T04:43:34.450Z,2.18
2022-12-05T04:46:17.608Z,2.23
2022-12-05T04:49:01.571Z,2.24
2022-12-05T04:51:43.504Z,2.18
2022-12-05T04:54:25.121Z,2.19
2022-12-05T04:57:08.150Z,2.17
2022-12-05T04:59:50.805Z,2.19
2022-12-05T05:02:34.782Z,2.20
2022-12-05T05:05:15.105Z,2.24
2022-12-05T05:07:58.266Z,2.23
2022-12-05T05:10:43.047Z,2.15
2022-12-05T05:13:25.857Z,2.08
2022-12-05T05:16:07.560Z,2.18
2022-12-05T05:18:48.645Z,2.08
2022-12-05T05:21:30.236Z,2.15
2022-12-05T05:24:11.641Z,2.21
2022-12-05T05:26:57.521Z,2.23
2022-12-05T05:29:38.689Z,2.21
2022-12-05T05:32:16.590Z,2.09
2022-12-05T05:34:56.695Z,2.18
2022-12-05T05:37:36.509Z,2.16
2022-12-05T05:40:16.397Z,2.15
2022-12-05T05:42:56.158Z,2.13
2022-12-05T05:45:38.572Z,2.13
2022-12-05T05:48:18.928Z,2.12
2022-12-05T05:51:00.693Z,2.13
2022-12-05T05:53:42.038Z,2.09
2022-12-05T05:56:23.221Z,2.13
2022-12-05T05:59:04.829Z,2.15
2022-12-05T06:01:48.020Z,2.11
2022-12-05T06:04:29.079Z,2.10
2022-12-05T06:07:10.394Z,2.13
2022-12-05T06:09:50.198Z,2.06
2022-12-05T06:12:30.069Z,2.12
2022-12-05T06:15:10.668Z,2.09
2022-12-05T06:17:51.232Z,2.13
2022-12-05T06:20:33.064Z,2.14
2022-12-05T06:23:14.028Z,2.12
2022-12-05T06:25:55.308Z,2.11
2022-12-05T06:28:37.584Z,2.11
2022-12-05T06:31:18.906Z,2.15
2022-12-05T06:34:02.561Z,2.10
2022-12-05T06:36:42.663Z,2.07
2022-12-05T06:39:22.482Z,2.15
2022-12-05T06:42:02.465Z,2.15
2022-12-05T06:44:43.703Z,2.15
2022-12-05T06:47:25.536Z,2.13
2022-12-05T06:50:07.882Z,2.13
2022-12-05T06:52:47.927Z,2.14
2022-12-05T06:55:29.716Z,2.16
2022-12-05T06:58:12.719Z,2.10
2022-12-05T07:01:11.601Z,2.15
2022-12-05T07:03:50.832Z,2.15
2022-12-05T07:06:31.036Z,2.11
2022-12-05T07:09:14.378Z,2.12
2022-12-05T07:11:55.471Z,1.98
2022-12-05T07:14:50.635Z,1.97
2022-12-05T07:17:31.015Z,1.97
2022-12-05T07:20:12.620Z,1.96
2022-12-05T07:22:55.789Z,1.95
2022-12-05T07:25:36.786Z,1.92
2022-12-05T07:28:18.660Z,1.88
2022-12-05T07:31:02.942Z,1.86
2022-12-05T07:33:46.294Z,1.87
2022-12-05T07:36:29.281Z,1.88
2022-12-05T07:39:12.275Z,1.91
2022-12-05T07:41:53.298Z,1.86
2022-12-05T07:44:35.286Z,1.90
2022-12-05T07:47:16.179Z,1.79
2022-12-05T07:49:57.748Z,1.86
2022-12-05T07:52:40.875Z,1.86
2022-12-05T07:55:21.938Z,1.84
2022-12-05T07:58:00.069Z,1.86
2022-12-05T08:01:06.489Z,1.90
2022-12-05T08:03:48.946Z,1.90
2022-12-05T08:06:28.789Z,1.93
2022-12-05T08:09:09.728Z,1.97
2022-12-05T08:11:52.602Z,1.99
2022-12-05T08:14:34.127Z,1.90
2022-12-05T08:17:14.013Z,1.97
2022-12-05T08:19:56.242Z,2.02
2022-12-05T08:22:36.774Z,2.03
2022-12-05T08:25:16.672Z,1.99
2022-12-05T08:27:57.979Z,2.04
2022-12-05T08:30:37.901Z,2.06
2022-12-05T08:33:19.187Z,2.08
2022-12-05T08:36:02.254Z,2.05
2022-12-05T08:38:42.130Z,2.03
2022-12-05T08:41:21.810Z,2.07
2022-12-05T08:44:03.016Z,2.11
2022-12-05T08:46:43.545Z,2.12
2022-12-05T08:49:24.463Z,2.12
2022-12-05T08:52:02.382Z,2.17
2022-12-05T08:54:44.634Z,2.19
2022-12-05T08:57:25.530Z,2.18
2022-12-05T09:00:08.276Z,2.25
2022-12-05T09:02:50.492Z,2.26
2022-12-05T09:05:33.447Z,2.24
2022-12-05T09:08:14.402Z,2.33
2022-12-05T09:10:55.729Z,2.32
2022-12-05T09:13:35.632Z,2.32
2022-12-05T09:16:17.789Z,2.36
2022-12-05T09:18:58.480Z,2.44
2022-12-05T09:21:41.918Z,2.46
2022-12-05T09:24:24.763Z,2.39
2022-12-05T09:27:08.054Z,2.46
2022-12-05T09:29:48.898Z,2.51
2022-12-05T09:32:32.277Z,2.42
2022-12-05T09:35:13.286Z,2.43
2022-12-05T09:37:56.952Z,2.40
2022-12-05T09:40:38.276Z,2.47
2022-12-05T09:43:20.547Z,2.53
2022-12-05T09:46:01.235Z,2.50
2022-12-05T09:48:41.819Z,2.58
2022-12-05T09:51:21.643Z,2.47
2022-12-05T09:54:01.423Z,2.59
2022-12-05T09:56:41.531Z,2.60
2022-12-05T09:59:22.718Z,2.69
2022-12-05T10:02:07.171Z,2.74
2022-12-05T10:04:58.537Z,2.58
2022-12-05T10:07:42.259Z,2.64
2022-12-05T10:10:31.671Z,2.71
2022-12-05T10:13:17.578Z,2.74
2022-12-05T10:15:58.911Z,2.68
2022-12-05T10:18:40.719Z,2.71
2022-12-05T10:21:22.003Z,2.75
2022-12-05T10:24:02.967Z,2.61
2022-12-05T10:26:44.839Z,2.70
2022-12-05T10:29:27.114Z,2.81
2022-12-05T10:32:13.907Z,2.69
2022-12-05T10:34:55.810Z,2.80
2022-12-05T10:37:35.974Z,2.80
2022-12-05T10:40:16.175Z,2.84
2022-12-05T10:42:57.245Z,2.66
2022-12-05T10:45:37.093Z,2.79
2022-12-05T10:48:19.022Z,2.86
2022-12-05T10:51:00.798Z,2.75
2022-12-05T10:53:42.597Z,2.84
2022-12-05T10:56:39.046Z,2.75
2022-12-05T10:59:20.877Z,2.84
2022-12-05T11:02:01.543Z,2.70
2022-12-05T11:04:43.915Z,2.55
2022-12-05T11:07:26.127Z,2.60
2022-12-05T11:10:23.568Z,2.60
2022-12-05T11:13:05.387Z,2.63
2022-12-05T11:15:53.814Z,2.77
2022-12-05T11:18:37.468Z,2.83
2022-12-05T11:21:19.976Z,2.77
2022-12-05T11:24:00.187Z,2.83
2022-12-05T11:26:42.573Z,2.92
2022-12-05T11:29:33.343Z,2.92
2022-12-05T11:32:19.613Z,2.78
2022-12-05T11:35:27.304Z,2.87
2022-12-05T11:38:06.710Z,2.92
2022-12-05T11:40:48.787Z,2.92
2022-12-05T11:43:33.997Z,2.94
2022-12-05T11:46:16.831Z,2.93
2022-12-05T11:49:01.510Z,2.92
2022-12-05T11:51:43.294Z,2.94
2022-12-05T11:55:02.888Z,2.94
2022-12-05T11:57:33.147Z,2.95
2022-12-05T12:00:24.548Z,2.94
2022-12-05T12:03:21.213Z,2.97
2022-12-05T12:06:05.416Z,2.94
2022-12-05T12:08:48.699Z,2.90
2022-12-05T12:11:30.680Z,2.91
2022-12-05T12:14:14.204Z,2.94
2022-12-05T12:16:58.104Z,2.88
2022-12-05T12:19:44.822Z,2.92
2022-12-05T12:22:32.084Z,2.93
2022-12-05T12:25:21.714Z,2.93
2022-12-05T12:28:05.979Z,2.91
2022-12-05T12:30:50.511Z,2.91
2022-12-05T12:33:33.409Z,2.93
2022-12-05T12:36:16.453Z,2.91
2022-12-05T12:39:10.663Z,2.92
2022-12-05T12:41:54.632Z,2.92
2022-12-05T12:44:41.180Z,2.91
2022-12-05T12:47:23.779Z,2.92
2022-12-05T12:50:04.654Z,2.94
2022-12-05T12:52:50.107Z,2.95
2022-12-05T12:55:36.538Z,2.97
2022-12-05T12:58:22.902Z,2.94
2022-12-05T13:01:06.481Z,2.97
2022-12-05T13:03:51.711Z,2.94
2022-12-05T13:06:34.724Z,2.92
2022-12-05T13:09:17.673Z,2.98
2022-12-05T13:11:59.897Z,2.92
2022-12-05T13:14:40.433Z,2.98
2022-12-05T13:17:21.872Z,2.94
2022-12-05T13:20:02.970Z,2.99
2022-12-05T13:22:43.878Z,3.01
2022-12-05T13:25:25.259Z,3.00
2022-12-05T13:28:06.570Z,3.00
2022-12-05T13:30:58.586Z,3.01
2022-12-05T13:33:43.424Z,2.96
2022-12-05T13:36:39.948Z,2.97
2022-12-05T13:39:38.300Z,3.02
2022-12-05T13:42:22.082Z,2.97
2022-12-05T13:45:08.480Z,2.99
2022-12-05T13:47:51.452Z,2.99
2022-12-05T13:50:32.329Z,2.94
2022-12-05T13:53:26.193Z,2.96
2022-12-05T13:56:09.722Z,2.92
2022-12-05T13:58:51.137Z,2.94
2022-12-05T14:01:50.363Z,2.90
2022-12-05T14:04:50.313Z,2.93
2022-12-05T14:07:41.773Z,2.93
2022-12-05T14:10:25.036Z,2.93
2022-12-05T14:13:26.783Z,2.94
2022-12-05T14:16:21.345Z,2.95
2022-12-05T14:19:04.855Z,2.92
2022-12-05T14:21:46.455Z,2.93
2022-12-05T14:24:27.781Z,2.92
2022-12-05T14:27:11.413Z,2.91
2022-12-05T14:29:55.570Z,2.90
2022-12-05T14:32:39.870Z,2.88
2022-12-05T14:35:21.046Z,2.88
2022-12-05T14:38:02.436Z,2.88
2022-12-05T14:40:43.480Z,2.81
2022-12-05T14:43:27.170Z,2.81
2022-12-05T14:46:07.925Z,2.80
2022-12-05T14:48:49.203Z,2.77
2022-12-05T14:51:45.816Z,2.75
2022-12-05T14:54:25.961Z,2.78
2022-12-05T14:57:09.823Z,2.78
2022-12-05T14:59:51.404Z,2.75
2022-12-05T15:02:32.677Z,2.78
2022-12-05T15:05:19.228Z,2.75
2022-12-05T15:07:59.515Z,2.69
2022-12-05T15:10:40.721Z,2.72
2022-12-05T15:13:20.906Z,2.70
2022-12-05T15:16:02.912Z,2.72
2022-12-05T15:18:44.005Z,2.72
2022-12-05T15:21:25.095Z,2.70
2022-12-05T15:24:07.255Z,2.71
2022-12-05T15:26:49.284Z,2.69
2022-12-05T15:29:32.692Z,2.63
2022-12-05T15:32:19.960Z,2.61
2022-12-05T15:35:04.801Z,2.59
2022-12-05T15:37:47.463Z,2.63
2022-12-05T15:40:37.258Z,2.64
2022-12-05T15:43:25.018Z,2.65
2022-12-05T15:46:15.770Z,2.64
2022-12-05T15:48:58.027Z,2.64
2022-12-05T15:51:38.662Z,2.65
2022-12-05T15:54:18.870Z,2.66
2022-12-05T15:57:01.500Z,2.67
2022-12-05T15:59:43.561Z,2.67
2022-12-05T16:02:25.051Z,2.66
2022-12-05T16:05:05.917Z,2.65
2022-12-05T16:07:47.090Z,2.64
2022-12-05T16:10:29.879Z,2.64
2022-12-05T16:13:12.558Z,2.67
2022-12-05T16:15:55.008Z,2.66
2022-12-05T16:18:40.873Z,2.65
2022-12-05T16:21:37.342Z,2.65
2022-12-05T16:24:21.506Z,2.63
2022-12-05T16:27:06.956Z,2.64
2022-12-05T16:29:47.382Z,2.63
2022-12-05T16:32:28.510Z,2.63
2022-12-05T16:35:21.960Z,2.63
2022-12-05T16:38:19.401Z,2.63
2022-12-05T16:41:00.650Z,2.63
2022-12-05T16:43:45.004Z,2.64
2022-12-05T16:46:45.579Z,2.63
2022-12-05T16:49:33.085Z,2.63
2022-12-05T16:52:15.036Z,2.63
2022-12-05T16:54:55.819Z,2.62
2022-12-05T16:57:37.201Z,2.62
2022-12-05T17:00:17.516Z,2.63
2022-12-05T17:03:25.739Z,2.64
2022-12-05T17:05:59.108Z,2.64
2022-12-05T17:08:40.374Z,2.65
2022-12-05T17:11:20.746Z,2.64
2022-12-05T17:14:02.437Z,2.62
2022-12-05T17:16:43.366Z,2.60
2022-12-05T17:19:24.489Z,2.60
2022-12-05T17:22:06.950Z,2.60
2022-12-05T17:24:47.238Z,2.61
2022-12-05T17:27:29.103Z,2.61
2022-12-05T17:30:12.259Z,2.61
2022-12-05T17:32:53.202Z,2.62
2022-12-05T17:35:35.957Z,2.61
2022-12-05T17:38:15.896Z,2.61
2022-12-05T17:40:55.979Z,2.61
2022-12-05T17:43:37.120Z,2.61
2022-12-05T17:46:18.800Z,2.59
2022-12-05T17:49:01.927Z,2.60
2022-12-05T17:52:05.509Z,2.62
2022-12-05T17:54:43.541Z,2.62
2022-12-05T17:57:23.311Z,2.62
2022-12-05T18:00:03.353Z,2.62
2022-12-05T18:02:47.791Z,2.62
2022-12-05T18:05:27.572Z,2.61
2022-12-05T18:08:09.799Z,2.60
2022-12-05T18:10:50.399Z,2.60
2022-12-05T18:13:30.169Z,2.60
2022-12-05T18:16:10.007Z,2.63
2022-12-05T18:18:51.438Z,2.61
2022-12-05T18:21:31.207Z,2.61
2022-12-05T18:24:10.991Z,2.59
2022-12-05T18:26:50.787Z,2.57
2022-12-05T18:29:30.601Z,2.55
2022-12-05T18:32:10.480Z,2.54
2022-12-05T18:34:51.840Z,2.58
2022-12-05T18:37:31.678Z,2.59
2022-12-05T18:40:14.911Z,2.55
2022-12-05T18:42:56.025Z,2.57
2022-12-05T18:45:36.095Z,2.58
2022-12-05T18:48:42.602Z,2.53
2022-12-05T18:51:20.532Z,2.55
2022-12-05T18:54:00.915Z,2.55
2022-12-05T18:56:40.856Z,2.56
2022-12-05T18:59:22.469Z,2.57
2022-12-05T19:02:05.887Z,2.55
2022-12-05T19:04:46.810Z,2.53
2022-12-05T19:07:27.985Z,2.56
2022-12-05T19:10:08.941Z,2.55
2022-12-05T19:12:51.128Z,2.53
2022-12-05T19:15:34.168Z,2.56
2022-12-05T19:18:15.229Z,2.55
2022-12-05T19:20:54.966Z,2.54
2022-12-05T19:23:35.162Z,2.54
2022-12-05T19:26:16.218Z,2.54
2022-12-05T19:28:56.226Z,2.52
2022-12-05T19:31:37.406Z,2.52
2022-12-05T19:34:17.242Z,2.47
2022-12-05T19:36:58.040Z,2.49
2022-12-05T19:39:38.758Z,2.49
2022-12-05T19:42:19.832Z,2.50
2022-12-05T19:45:07.547Z,2.51
2022-12-05T19:47:51.002Z,2.48
2022-12-05T19:50:32.044Z,2.46
2022-12-05T19:53:12.289Z,2.49
2022-12-05T19:55:53.312Z,2.48
2022-12-05T19:58:33.285Z,2.48
2022-12-05T20:01:15.596Z,2.45
2022-12-05T20:03:56.631Z,2.45
2022-12-05T20:06:37.681Z,2.45
2022-12-05T20:09:19.486Z,2.46
2022-12-05T20:12:03.948Z,2.45
2022-12-05T20:14:44.697Z,2.42
2022-12-05T20:17:24.532Z,2.45
2022-12-05T20:20:04.607Z,2.46
2022-12-05T20:22:45.774Z,2.44
2022-12-05T20:25:25.741Z,2.42
2022-12-05T20:28:08.784Z,2.43
2022-12-05T20:30:50.016Z,2.44
2022-12-05T20:33:31.354Z,2.42
2022-12-05T20:36:12.187Z,2.45
2022-12-05T20:38:57.165Z,2.45
2022-12-05T20:41:37.577Z,2.45
2022-12-05T20:44:18.587Z,2.43
2022-12-05T20:46:58.471Z,2.45
2022-12-05T20:49:38.197Z,2.42
2022-12-05T20:52:17.983Z,2.39
2022-12-05T20:54:57.822Z,2.40
2022-12-05T20:57:37.807Z,2.41
2022-12-05T21:00:21.305Z,2.41
2022-12-05T21:03:02.066Z,2.40
2022-12-05T21:05:44.135Z,2.37
2022-12-05T21:08:25.102Z,2.32
2022-12-05T21:11:06.725Z,2.35
2022-12-05T21:13:47.748Z,2.34
2022-12-05T21:16:27.560Z,2.36
2022-12-05T21:19:09.615Z,2.36
2022-12-05T21:21:50.377Z,2.37
2022-12-05T21:24:31.744Z,2.36
2022-12-05T21:27:11.482Z,2.34
2022-12-05T21:29:53.314Z,2.28
2022-12-05T21:32:36.304Z,2.32
2022-12-05T21:35:17.416Z,2.29
2022-12-05T21:37:58.834Z,2.29
2022-12-05T21:40:38.925Z,2.32
2022-12-05T21:43:21.204Z,2.29
2022-12-05T21:46:04.974Z,2.32
2022-12-05T21:48:46.546Z,2.33
2022-12-05T21:51:29.823Z,2.32
2022-12-05T21:54:10.759Z,2.33
2022-12-05T21:56:51.821Z,2.31
2022-12-05T21:59:32.906Z,2.31
2022-12-05T22:02:13.035Z,2.29
2022-12-05T22:04:58.245Z,2.32
2022-12-05T22:07:39.086Z,2.27
2022-12-05T22:10:18.872Z,2.29
2022-12-05T22:13:02.949Z,2.28
2022-12-05T22:15:43.323Z,2.25
2022-12-05T22:18:24.708Z,2.25
2022-12-05T22:21:05.080Z,2.20
2022-12-05T22:23:46.008Z,2.24
2022-12-05T22:26:27.422Z,2.20
2022-12-05T22:29:08.898Z,2.23
2022-12-05T22:31:52.638Z,2.25
2022-12-05T22:34:33.183Z,2.24
2022-12-05T22:37:12.997Z,2.25
2022-12-05T22:39:55.019Z,2.25
2022-12-05T22:42:36.281Z,2.21
2022-12-05T22:45:17.184Z,2.20
2022-12-05T22:47:59.051Z,2.18
2022-12-05T22:50:47.654Z,2.20
2022-12-05T22:53:27.974Z,2.19
2022-12-05T22:56:09.592Z,2.20
2022-12-05T22:58:53.766Z,2.20
2022-12-05T23:01:34.008Z,2.21
2022-12-05T23:04:15.114Z,2.21
2022-12-05T23:06:56.485Z,2.18
2022-12-05T23:09:37.911Z,2.15
2022-12-05T23:12:19.294Z,2.15
2022-12-05T23:15:01.110Z,2.16
2022-12-05T23:17:42.903Z,2.15
2022-12-05T23:20:23.556Z,2.15
2022-12-05T23:23:05.056Z,2.13
2022-12-05T23:25:46.590Z,2.14
2022-12-05T23:28:27.750Z,2.10
2022-12-05T23:31:10.040Z,2.11
2022-12-05T23:33:51.673Z,2.06
2022-12-05T23:36:32.131Z,2.10
2022-12-05T23:39:15.374Z,2.07
2022-12-05T23:41:58.394Z,2.04
2022-12-05T23:44:39.384Z,2.08
2022-12-05T23:47:19.278Z,2.05
2022-12-05T23:50:00.897Z,2.02
2022-12-05T23:52:42.022Z,2.07
2022-12-05T23:55:23.432Z,2.06
2022-12-05T23:58:05.001Z,2.04
